Time;durP1;ratioP1;P1;durP2;ratioP2;P2;SDS_P1;SDS_P2;PMS_P1;PMS_P2;Temp;Humidity;BMP_temperature;BMP_pressure;BME280_temperature;BME280_humidity;BME280_pressure;Samples;Min_cycle;Max_cycle;Signal;HPM_P1;HPM_P2
2023/01/07 05:22:42;;;;;;;0.55;0.55;;;;;;;9.55;83.03;100492.59;5089271;28;20336;-67
2023/01/07 05:25:08;;;;;;;1.58;1.13;;;;;;;9.62;82.24;100487.47;5087801;28;20036;-67
2023/01/07 05:27:34;;;;;;;0.95;0.77;;;;;;;9.64;81.95;100483.63;5087639;28;20046;-68
2023/01/07 05:30:01;;;;;;;1.35;1.10;;;;;;;9.66;81.62;100483.50;5087930;28;20067;-67
2023/01/07 05:32:27;;;;;;;0.70;0.70;;;;;;;9.69;81.80;100489.31;5087908;28;20469;-67
2023/01/07 05:34:52;;;;;;;1.13;0.73;;;;;;;9.64;81.64;100470.34;5089722;28;20115;-68
2023/01/07 05:37:18;;;;;;;0.90;0.80;;;;;;;9.72;82.39;100477.53;5087508;28;20045;-68
2023/01/07 05:39:44;;;;;;;0.60;0.60;;;;;;;9.72;81.63;100473.03;5087800;28;20078;-68
2023/01/07 05:42:14;;;;;;;1.17;0.98;;;;;;;9.72;81.52;100470.38;5087619;28;20082;-68
2023/01/07 05:44:41;;;;;;;1.17;1.08;;;;;;;9.73;81.01;100460.56;5087550;28;20036;-69
2023/01/07 05:47:07;;;;;;;1.25;0.90;;;;;;;9.75;80.73;100466.56;5088666;28;20028;-67
2023/01/07 05:49:32;;;;;;;2.22;1.00;;;;;;;9.78;81.13;100467.06;5089008;28;20067;-69
2023/01/07 05:51:58;;;;;;;1.30;0.90;;;;;;;9.78;80.28;100460.91;5088821;28;20064;-68
2023/01/07 05:54:23;;;;;;;3.65;1.05;;;;;;;9.76;80.37;100455.75;5088763;28;20040;-69
2023/01/07 05:56:48;;;;;;;1.13;0.90;;;;;;;9.77;79.63;100451.25;5088590;28;20392;-69
2023/01/07 05:59:14;;;;;;;0.60;0.60;;;;;;;9.75;78.87;100451.41;5088411;28;20113;-68
2023/01/07 06:01:39;;;;;;;0.82;0.80;;;;;;;9.78;79.03;100439.63;5088627;28;20482;-68
2023/01/07 06:04:05;;;;;;;1.48;0.82;;;;;;;9.79;79.49;100449.28;5088631;28;20092;-69
2023/01/07 06:06:30;;;;;;;2.03;0.70;;;;;;;9.78;78.54;100436.97;5088459;28;20217;-69
2023/01/07 06:08:55;;;;;;;2.50;0.98;;;;;;;9.78;79.51;100437.81;5088196;28;20063;-68
2023/01/07 06:11:21;;;;;;;0.70;0.57;;;;;;;9.78;79.27;100440.47;5088409;28;20036;-69
2023/01/07 06:13:46;;;;;;;1.60;1.02;;;;;;;9.75;78.94;100432.78;5088503;28;20032;-68
2023/01/07 06:16:12;;;;;;;1.33;0.82;;;;;;;9.77;78.20;100432.63;5088327;28;20079;-68
2023/01/07 06:18:38;;;;;;;0.85;0.80;;;;;;;9.75;78.22;100432.78;5087967;28;20127;-68
2023/01/07 06:21:03;;;;;;;3.50;0.68;;;;;;;9.75;78.32;100424.81;5086875;28;20174;-68
2023/01/07 06:23:30;;;;;;;0.65;0.50;;;;;;;9.77;77.86;100432.63;5088572;28;20502;-69
2023/01/07 06:25:55;;;;;;;1.08;0.70;;;;;;;9.78;77.54;100426.34;5088018;28;20036;-68
2023/01/07 06:28:20;;;;;;;0.63;0.55;;;;;;;9.78;78.17;100426.34;5087800;28;20047;-68
2023/01/07 06:30:47;;;;;;;1.42;0.65;;;;;;;9.77;78.02;100429.97;5088083;28;20032;-68
2023/01/07 06:33:15;;;;;;;11.23;4.90;;;;;;;9.77;78.24;100429.97;5079559;28;20440;-68
2023/01/07 06:35:41;;;;;;;1.73;0.95;;;;;;;9.75;78.21;100429.31;5074530;28;20033;-69
2023/01/07 06:38:07;;;;;;;0.63;0.63;;;;;;;9.75;78.14;100426.66;5074100;28;20504;-69
2023/01/07 06:40:32;;;;;;;0.63;0.63;;;;;;;9.78;78.31;100427.16;5074298;28;20044;-69
2023/01/07 06:42:58;;;;;;;0.75;0.75;;;;;;;9.75;77.80;100422.16;5074411;28;20096;-68
2023/01/07 06:45:23;;;;;;;1.17;0.68;;;;;;;9.77;78.15;100420.16;5074448;28;20146;-69
2023/01/07 06:47:49;;;;;;;3.80;1.75;;;;;;;9.77;80.32;100414.00;5074670;28;20036;-68
2023/01/07 06:50:15;;;;;;;0.40;0.40;;;;;;;9.75;77.98;100410.69;5074296;28;20036;-68
2023/01/07 06:52:41;;;;;;;0.70;0.70;;;;;;;9.76;78.35;100409.69;5074326;28;20036;-69
2023/01/07 06:55:07;;;;;;;1.33;0.93;;;;;;;9.76;78.22;100409.69;5074228;28;20032;-67
2023/01/07 06:57:32;;;;;;;0.73;0.50;;;;;;;9.76;78.15;100407.84;5073670;28;20052;-69
2023/01/07 06:59:58;;;;;;;0.47;0.40;;;;;;;9.74;78.46;100404.53;5074172;28;20040;-69
2023/01/07 07:02:25;;;;;;;0.75;0.73;;;;;;;9.74;78.60;100401.03;5073984;28;20045;-68
2023/01/07 07:04:51;;;;;;;;;;;;;;;9.72;78.66;100403.88;5074604;28;20036;-68
2023/01/07 07:07:17;;;;;;;0.60;0.40;;;;;;;9.73;78.87;100400.22;5073503;28;19919;-67
2023/01/07 07:09:43;;;;;;;1.77;0.60;;;;;;;9.72;78.70;100398.56;5074272;28;20120;-69
2023/01/07 07:12:08;;;;;;;0.40;0.40;;;;;;;9.72;78.94;100403.88;5074018;28;20060;-68
2023/01/07 07:14:34;;;;;;;1.13;0.50;;;;;;;9.74;79.18;100403.72;5073919;28;20052;-68
2023/01/07 07:17:00;;;;;;;0.65;0.55;;;;;;;9.70;78.76;100399.69;5073629;28;20037;-68
2023/01/07 07:19:25;;;;;;;0.63;0.60;;;;;;;9.70;78.96;100397.03;5073591;28;20042;-68
2023/01/07 07:21:51;;;;;;;0.80;0.50;;;;;;;9.71;78.93;100393.38;5073580;28;20047;-69
2023/01/07 07:24:16;;;;;;;1.02;0.73;;;;;;;9.70;79.14;100392.53;5073607;28;20120;-69
2023/01/07 07:26:41;;;;;;;1.30;0.70;;;;;;;9.71;78.75;100391.53;5073501;28;20469;-56
2023/01/07 07:29:08;;;;;;;1.45;1.10;;;;;;;9.67;79.35;100384.91;5073213;28;20131;-54
2023/01/07 07:31:34;;;;;;;1.17;0.80;;;;;;;9.67;78.93;100392.06;5073631;28;20036;-56
2023/01/07 07:33:59;;;;;;;0.50;0.50;;;;;;;9.69;78.90;100392.72;5073383;28;20043;-55
2023/01/07 07:36:24;;;;;;;0.50;0.50;;;;;;;9.72;78.21;100389.75;5073228;28;20025;-56
2023/01/07 07:38:50;;;;;;;0.73;0.38;;;;;;;9.74;77.60;100382.44;5072904;28;20038;-59
2023/01/07 07:41:15;;;;;;;1.38;0.80;;;;;;;9.73;77.96;100384.25;5073653;28;20043;-65
2023/01/07 07:43:40;;;;;;;0.47;0.47;;;;;;;9.72;77.94;100374.63;5072746;28;20033;-66
2023/01/07 07:46:06;;;;;;;1.73;0.70;;;;;;;9.72;78.28;100379.09;5072500;28;20050;-66
2023/01/07 07:48:31;;;;;;;2.05;0.73;;;;;;;9.68;78.34;100375.94;5072836;28;20041;-66
2023/01/07 07:50:57;;;;;;;2.42;0.55;;;;;;;9.69;78.48;100374.09;5073042;28;20032;-66
2023/01/07 07:53:22;;;;;;;3.63;1.63;;;;;;;9.67;78.43;100376.09;5072795;28;20040;-66
2023/01/07 07:55:47;;;;;;;1.48;0.95;;;;;;;9.68;77.96;100370.63;5055044;28;20032;-66
2023/01/07 07:58:13;;;;;;;0.82;0.50;;;;;;;9.70;78.12;100368.59;5072821;28;20033;-65
2023/01/07 08:00:38;;;;;;;1.67;0.98;;;;;;;9.67;78.34;100368.13;5072679;28;20105;-65
2023/01/07 08:03:04;;;;;;;0.50;0.50;;;;;;;9.67;78.23;100362.81;5071585;28;20052;-65
2023/01/07 08:05:29;;;;;;;0.32;0.32;;;;;;;9.67;78.72;100360.97;5071314;28;20500;-65
2023/01/07 08:07:55;;;;;;;0.55;0.40;;;;;;;9.63;78.63;100361.47;5072246;28;20043;-65
2023/01/07 08:10:21;;;;;;;0.38;0.38;;;;;;;9.65;78.79;100359.44;5072511;28;20131;-65
2023/01/07 08:12:49;;;;;;;0.40;0.40;;;;;;;9.66;78.63;100361.16;5072578;28;20040;-66
2023/01/07 08:15:14;;;;;;;0.70;0.70;;;;;;;9.68;78.44;100357.31;5072590;28;20048;-65
2023/01/07 08:17:40;;;;;;;0.70;0.50;;;;;;;9.66;78.73;100348.69;5072181;28;20098;-65
2023/01/07 08:20:06;;;;;;;0.55;0.50;;;;;;;9.68;78.38;100340.53;5072364;28;20044;-66
2023/01/07 08:22:32;;;;;;;0.20;0.20;;;;;;;9.65;78.30;100339.03;5072152;28;20165;-65
2023/01/07 08:24:58;;;;;;;1.05;0.70;;;;;;;9.67;78.26;100341.53;5071127;28;20037;-65
2023/01/07 08:27:23;;;;;;;0.65;0.60;;;;;;;9.65;78.23;100343.50;5071990;28;20040;-66
2023/01/07 08:29:49;;;;;;;0.70;0.50;;;;;;;9.66;78.26;100343.34;5072447;28;20401;-65
2023/01/07 08:32:14;;;;;;;0.57;0.57;;;;;;;9.60;78.35;100344.00;5072196;28;20093;-65
2023/01/07 08:34:40;;;;;;;0.82;0.50;;;;;;;9.61;78.86;100344.84;5072093;28;20060;-65
2023/01/07 08:37:05;;;;;;;0.57;0.57;;;;;;;9.60;79.16;100349.31;5071850;28;20032;-66
2023/01/07 08:39:31;;;;;;;0.80;0.60;;;;;;;9.62;78.67;100346.50;5071899;28;20040;-65
2023/01/07 08:41:56;;;;;;;0.70;0.60;;;;;;;9.65;78.93;100340.84;5071997;28;20036;-65
2023/01/07 08:44:21;;;;;;;0.50;0.50;;;;;;;9.62;79.14;100343.84;5072102;28;20131;-66
2023/01/07 08:46:47;;;;;;;0.65;0.52;;;;;;;9.61;78.83;100334.19;5071971;28;20153;-66
2023/01/07 08:49:12;;;;;;;0.45;0.45;;;;;;;9.65;78.79;100331.06;5071813;28;20081;-65
2023/01/07 08:51:37;;;;;;;0.30;0.30;;;;;;;9.64;79.10;100337.34;5071928;28;20126;-65
2023/01/07 08:54:03;;;;;;;0.30;0.30;;;;;;;9.66;78.75;100345.19;5070581;28;20051;-66
2023/01/07 08:56:28;;;;;;;0.85;0.45;;;;;;;9.69;79.24;100336.84;5071759;28;20040;-65
2023/01/07 08:58:54;;;;;;;0.80;0.30;;;;;;;9.69;78.53;100332.38;5071551;28;20047;-65
2023/01/07 09:01:19;;;;;;;0.40;0.40;;;;;;;9.72;78.57;100325.91;5071781;28;20044;-65
2023/01/07 09:03:44;;;;;;;0.75;0.60;;;;;;;9.74;78.87;100329.22;5071738;28;20042;-65
2023/01/07 09:06:10;;;;;;;1.02;0.60;;;;;;;9.73;79.04;100320.41;5070411;28;20072;-64
2023/01/07 09:08:36;;;;;;;0.47;0.47;;;;;;;9.76;78.56;100316.56;5071360;28;20033;-65
2023/01/07 09:11:01;;;;;;;0.70;0.50;;;;;;;9.77;78.86;100318.22;5072012;28;20115;-65
2023/01/07 09:13:27;;;;;;;0.65;0.43;;;;;;;9.77;79.43;100319.06;5071934;28;20023;-65
2023/01/07 09:15:52;;;;;;;1.10;0.70;;;;;;;9.76;78.99;100316.56;5053764;28;20044;-65
2023/01/07 09:18:19;;;;;;;0.98;0.50;;;;;;;9.76;79.02;100311.25;5071428;28;20047;-65
2023/01/07 09:20:44;;;;;;;0.65;0.17;;;;;;;9.75;79.13;100310.44;5071318;28;20447;-65
2023/01/07 09:23:10;;;;;;;0.40;0.40;;;;;;;9.79;78.99;100316.25;5071472;28;20033;-65
2023/01/07 09:25:35;;;;;;;0.38;0.35;;;;;;;9.77;78.75;100296.97;5071766;28;20538;-65
2023/01/07 09:28:00;;;;;;;0.70;0.45;;;;;;;9.82;78.48;100307.09;5070003;28;20397;-65
2023/01/07 09:30:26;;;;;;;0.65;0.57;;;;;;;9.81;79.31;100300.13;5071676;28;20036;-65
2023/01/07 09:32:51;;;;;;;0.60;0.60;;;;;;;9.84;78.86;100297.94;5071594;28;20090;-64
2023/01/07 09:35:17;;;;;;;0.65;0.65;;;;;;;9.88;79.83;100301.94;5071317;28;20033;-65
2023/01/07 09:37:43;;;;;;;1.85;0.75;;;;;;;9.88;79.76;100287.81;5071096;28;20041;-65
2023/01/07 09:40:20;;;;;;;2.83;0.63;;;;;;;9.90;79.22;100301.78;5071471;28;20094;-65
2023/01/07 09:42:55;;;;;;;0.70;0.65;;;;;;;9.89;78.57;100302.78;5071307;28;20032;-65
2023/01/07 09:45:28;;;;;;;0.40;0.40;;;;;;;9.91;78.58;100301.63;5071403;28;20048;-65
2023/01/07 09:47:57;;;;;;;0.63;0.43;;;;;;;9.96;78.55;100301.94;5071013;28;20032;-65
2023/01/07 09:50:39;;;;;;;0.95;0.50;;;;;;;10.01;79.23;100302.28;5070261;28;20044;-65
2023/01/07 09:53:11;;;;;;;1.33;0.73;;;;;;;10.08;80.38;100294.44;5071538;28;20044;-65
2023/01/07 09:55:40;;;;;;;0.75;0.47;;;;;;;10.09;79.42;100289.94;5071433;28;20037;-64
2023/01/07 09:58:18;;;;;;;1.13;0.82;;;;;;;10.09;79.04;100287.28;5071015;28;20044;-64
2023/01/07 10:00:56;;;;;;;0.88;0.70;;;;;;;10.12;78.20;100292.28;5071058;28;20045;-65
2023/01/07 10:03:57;;;;;;;1.05;0.88;;;;;;;10.12;78.11;100282.47;5071335;28;20032;-65
2023/01/07 10:06:30;;;;;;;0.55;0.55;;;;;;;10.18;78.26;100280.97;5061948;28;20094;-65
2023/01/07 10:09:10;;;;;;;1.52;0.55;;;;;;;10.23;77.85;100274.13;5073522;28;20102;-65
2023/01/07 10:11:56;;;;;;;0.50;0.50;;;;;;;10.36;76.61;100278.94;5075146;28;20078;-64
2023/01/07 10:14:46;;;;;;;1.05;0.65;;;;;;;10.45;76.51;100275.25;5074981;28;20074;-65
2023/01/07 10:17:33;;;;;;;0.40;0.40;;;;;;;10.52;76.45;100265.56;5074510;28;20047;-65
2023/01/07 10:20:16;;;;;;;0.52;0.52;;;;;;;10.62;75.51;100269.84;5074748;28;20039;-65
2023/01/07 10:22:54;;;;;;;0.77;0.63;;;;;;;10.70;73.43;100261.84;5074738;28;20103;-65
2023/01/07 10:25:27;;;;;;;1.02;0.70;;;;;;;10.82;72.76;100258.63;5074761;28;20032;-65
2023/01/07 10:27:57;;;;;;;0.80;0.68;;;;;;;10.89;72.28;100245.44;5074308;28;20047;-65
2023/01/07 10:30:28;;;;;;;3.55;1.10;;;;;;;11.19;71.23;100235.72;5073223;28;20051;-68
2023/01/07 10:33:09;;;;;;;1.00;0.70;;;;;;;11.49;68.67;100226.00;5074592;28;20792;-67
2023/01/07 10:35:47;;;;;;;1.58;0.88;;;;;;;11.55;68.38;100229.81;5074421;28;20039;-67
2023/01/07 10:38:16;;;;;;;;;;;;;;;11.56;67.44;100220.78;5074544;28;20497;-66
2023/01/07 10:40:53;;;;;;;0.85;0.80;;;;;;;11.58;67.84;100216.09;5074374;28;19916;-66
2023/01/07 10:43:19;;;;;;;0.95;0.80;;;;;;;11.54;67.27;100212.97;5074395;28;20037;-67
2023/01/07 10:46:03;;;;;;;0.60;0.60;;;;;;;11.55;66.51;100214.63;5074262;28;20036;-68
2023/01/07 10:48:37;;;;;;;0.90;0.60;;;;;;;11.53;67.72;100200.63;5074021;28;20123;-67
2023/01/07 10:51:47;;;;;;;1.05;0.70;;;;;;;11.53;66.69;100189.94;5074417;28;20463;-68
2023/01/07 10:54:29;;;;;;;0.77;0.57;;;;;;;11.54;66.43;100188.09;5063361;28;20052;-66
2023/01/07 10:57:01;;;;;;;0.50;0.50;;;;;;;11.57;66.23;100171.75;5073984;28;20044;-67
2023/01/07 10:59:27;;;;;;;0.98;0.70;;;;;;;11.53;66.61;100171.28;5073810;28;20039;-67
2023/01/07 11:01:55;;;;;;;0.60;0.43;;;;;;;11.61;65.23;100170.38;5073835;28;20037;-67
2023/01/07 11:04:21;;;;;;;1.00;0.50;;;;;;;11.60;65.79;100158.84;5073933;28;20036;-67
2023/01/07 11:07:04;;;;;;;0.55;0.55;;;;;;;11.73;66.07;100152.91;5073961;28;20397;-67
2023/01/07 11:09:34;;;;;;;1.92;0.88;;;;;;;11.84;64.87;100149.81;5073685;28;20478;-66
2023/01/07 11:12:07;;;;;;;0.80;0.68;;;;;;;11.87;63.20;100151.31;5073785;28;20040;-67
2023/01/07 11:14:39;;;;;;;0.80;0.60;;;;;;;12.00;64.98;100148.81;5073770;28;20094;-67
2023/01/07 11:17:36;;;;;;;0.50;0.50;;;;;;;12.07;62.72;100138.22;5073378;28;20093;-65
2023/01/07 11:20:04;;;;;;;0.45;0.45;;;;;;;12.21;62.28;100135.53;5073360;28;20465;-67
2023/01/07 11:22:32;;;;;;;1.25;0.90;;;;;;;12.32;62.86;100136.06;5073343;28;20090;-67
2023/01/07 11:25:00;;;;;;;1.00;0.80;;;;;;;12.44;60.89;100127.38;5073400;28;20474;-66
2023/01/07 11:27:28;;;;;;;0.82;0.70;;;;;;;12.54;60.39;100127.09;5073091;28;20039;-68
2023/01/07 11:29:59;;;;;;;1.55;0.82;;;;;;;12.73;60.61;100121.13;5074040;28;20058;-66
2023/01/07 11:32:27;;;;;;;1.00;0.65;;;;;;;12.84;59.05;100119.78;5073732;28;20043;-66
2023/01/07 11:35:01;;;;;;;1.13;0.75;;;;;;;13.11;58.15;100112.03;5074622;28;20052;-65
2023/01/07 11:37:37;;;;;;;0.98;0.80;;;;;;;13.43;57.52;100103.47;5072981;28;20048;-65
2023/01/07 11:40:16;;;;;;;1.50;0.88;;;;;;;13.78;56.86;100095.44;5073120;28;20063;-56
2023/01/07 11:43:15;;;;;;;1.27;0.55;;;;;;;14.11;54.37;100103.63;5071702;28;20047;-59
2023/01/07 11:45:50;;;;;;;0.70;0.68;;;;;;;14.82;52.10;100095.19;5071669;28;20349;-65
2023/01/07 11:48:24;;;;;;;1.13;0.80;;;;;;;15.38;50.78;100078.66;5072595;28;20043;-65
2023/01/07 11:50:53;;;;;;;1.30;0.70;;;;;;;15.84;50.29;100077.78;5072840;28;20485;-66
2023/01/07 11:53:18;;;;;;;0.82;0.40;;;;;;;16.27;48.84;100080.72;5073029;28;20043;-66
2023/01/07 11:55:55;;;;;;;2.22;0.90;;;;;;;17.16;46.56;100068.16;5072901;28;20440;-66
2023/01/07 11:58:21;;;;;;;;;;;;;;;17.61;45.48;100072.28;5073019;28;20447;-66
2023/01/07 12:01:06;;;;;;;1.30;0.88;;;;;;;18.42;44.10;100064.88;5072707;28;19912;-66
2023/01/07 12:03:31;;;;;;;1.08;0.65;;;;;;;19.19;42.65;100055.00;5072656;28;20040;-66
2023/01/07 12:06:05;;;;;;;0.90;0.65;;;;;;;19.23;40.88;100056.19;5072630;28;20035;-68
2023/01/07 12:08:30;;;;;;;0.85;0.70;;;;;;;19.59;40.11;100048.06;5072514;28;20481;-66
2023/01/07 12:11:06;;;;;;;0.73;0.70;;;;;;;20.11;39.69;100043.47;5072632;28;20121;-66
2023/01/07 12:13:33;;;;;;;1.20;0.80;;;;;;;19.80;38.88;100036.63;5072750;28;20041;-66
2023/01/07 12:16:05;;;;;;;0.73;0.70;;;;;;;20.42;39.31;100030.53;5072409;28;20045;-66
2023/01/07 12:19:24;;;;;;;0.88;0.63;;;;;;;20.73;38.85;100037.31;5072115;28;20048;-64
2023/01/07 12:22:05;;;;;;;0.63;0.63;;;;;;;21.20;38.15;100018.06;5029985;28;20067;-66
2023/01/07 12:25:19;;;;;;;0.55;0.50;;;;;;;20.37;39.28;100012.34;5072259;28;20039;-64
2023/01/07 12:28:06;;;;;;;1.35;0.82;;;;;;;19.94;40.25;100010.97;5072006;28;20086;-66
2023/01/07 12:30:55;;;;;;;0.70;0.70;;;;;;;19.18;39.98;100001.25;5071765;28;20060;-64
2023/01/07 12:33:54;;;;;;;0.70;0.70;;;;;;;18.30;41.65;100000.13;5072305;28;20115;-66
2023/01/07 12:36:33;;;;;;;1.10;0.63;;;;;;;18.06;43.28;100004.63;5071960;28;20039;-65
2023/01/07 12:39:02;;;;;;;1.05;0.80;;;;;;;18.17;43.60;99994.91;5071767;28;20119;-66
2023/01/07 12:41:33;;;;;;;0.80;0.75;;;;;;;17.85;43.69;99989.75;5070479;28;20116;-66
2023/01/07 12:44:02;;;;;;;1.83;1.00;;;;;;;17.52;44.18;99981.22;5072103;28;20033;-66
2023/01/07 12:46:37;;;;;;;1.35;0.90;;;;;;;17.58;43.83;99977.63;5071866;28;20477;-66
2023/01/07 12:49:12;;;;;;;1.02;0.93;;;;;;;16.90;45.86;99967.78;5071746;28;20456;-65
2023/01/07 12:52:00;;;;;;;1.15;0.60;;;;;;;16.51;46.79;99963.53;5071968;28;20086;-65
2023/01/07 12:55:19;;;;;;;0.77;0.77;;;;;;;16.31;47.64;99963.69;5071918;28;20032;-66
2023/01/07 12:57:54;;;;;;;1.50;0.90;;;;;;;16.50;47.10;99951.16;5048918;28;20409;-65
2023/01/07 13:00:26;;;;;;;1.30;0.90;;;;;;;16.69;47.30;99946.63;5071828;28;20055;-65
2023/01/07 13:03:18;;;;;;;1.42;0.90;;;;;;;17.15;46.99;99954.31;5071684;28;20478;-66
2023/01/07 13:06:03;;;;;;;0.80;0.80;;;;;;;17.22;46.60;99952.38;5071739;28;20036;-65
2023/01/07 13:09:16;;;;;;;1.23;0.98;;;;;;;17.55;46.53;99945.78;5071744;28;20531;-66
2023/01/07 13:14:36;;;;;;;1.10;0.80;;;;;;;17.15;46.28;99940.84;5071786;28;20044;-66
2023/01/07 13:17:19;;;;;;;1.52;1.00;;;;;;;16.70;47.41;99943.75;5071644;28;20059;-65
2023/01/07 13:19:44;;;;;;;0.80;0.80;;;;;;;16.51;48.44;99932.09;5071698;28;20040;-65
2023/01/07 13:22:15;;;;;;;1.25;0.90;;;;;;;16.24;48.54;99936.84;5071495;28;20135;-66
2023/01/07 13:24:58;;;;;;;1.50;1.05;;;;;;;16.23;49.42;99931.69;5071766;28;20036;-66
2023/01/07 13:27:53;;;;;;;3.47;1.15;;;;;;;16.08;49.16;99937.38;5071226;28;20036;-65
2023/01/07 13:30:46;;;;;;;1.80;1.00;;;;;;;15.60;50.54;99934.31;5033923;28;20487;-66
2023/01/07 13:33:33;;;;;;;2.35;1.00;;;;;;;15.55;51.11;99926.06;5071350;28;20154;-65
2023/01/07 13:36:08;;;;;;;1.50;1.00;;;;;;;15.41;51.52;99927.97;5071370;28;20077;-65
2023/01/07 13:39:13;;;;;;;1.45;1.00;;;;;;;15.34;51.60;99921.81;5071554;28;20033;-66
2023/01/07 13:41:54;;;;;;;0.98;0.80;;;;;;;15.17;53.35;99918.75;5070896;28;20494;-66
2023/01/07 13:44:47;;;;;;;1.00;0.80;;;;;;;15.26;53.10;99920.19;5074924;28;20060;-66
2023/01/07 13:47:18;;;;;;;0.70;0.70;;;;;;;15.20;53.00;99918.34;5075128;28;20037;-66
2023/01/07 13:49:52;;;;;;;1.23;0.90;;;;;;;15.26;52.64;99917.50;5075313;28;20482;-66
2023/01/07 13:52:20;;;;;;;1.15;0.93;;;;;;;15.40;52.01;99910.22;5074117;28;20033;-66
2023/01/07 13:54:52;;;;;;;1.30;1.10;;;;;;;15.37;52.35;99922.19;5075197;28;20091;-66
2023/01/07 13:57:29;;;;;;;1.65;1.42;;;;;;;15.50;51.68;99915.13;5074905;28;20082;-66
2023/01/07 13:59:56;;;;;;;;;;;;;;;15.29;52.07;99917.06;5075876;28;20366;-67
2023/01/07 14:02:23;;;;;;;2.10;1.10;;;;;;;15.19;53.16;99908.63;5075192;28;19985;-67
2023/01/07 14:05:07;;;;;;;1.10;0.90;;;;;;;15.00;53.65;99918.41;5075138;28;20067;-65
2023/01/07 14:07:47;;;;;;;2.28;1.33;;;;;;;14.99;54.13;99910.53;5074519;28;20466;-66
2023/01/07 14:10:33;;;;;;;1.50;1.10;;;;;;;14.91;54.10;99914.28;5074969;28;20040;-65
2023/01/07 14:13:08;;;;;;;1.42;1.00;;;;;;;14.59;53.72;99914.09;5074802;28;20067;-66
2023/01/07 14:15:48;;;;;;;1.30;0.90;;;;;;;14.51;54.76;99914.31;5074654;28;20036;-65
2023/01/07 14:18:33;;;;;;;1.38;1.02;;;;;;;14.33;55.09;99912.22;5074550;28;20044;-65
2023/01/07 14:21:14;;;;;;;1.77;1.20;;;;;;;14.21;55.93;99908.50;5074571;28;20040;-65
2023/01/07 14:23:42;;;;;;;1.40;1.05;;;;;;;14.34;55.80;99903.19;5074656;28;20094;-66
2023/01/07 14:26:23;;;;;;;2.25;1.33;;;;;;;14.26;55.67;99895.34;5065919;28;20024;-64
2023/01/07 14:28:55;;;;;;;2.00;0.63;;;;;;;14.18;56.17;99903.56;5064623;28;20064;-66
2023/01/07 14:31:26;;;;;;;2.25;1.20;;;;;;;14.12;56.13;99905.22;5063873;28;20040;-65
2023/01/07 14:34:00;;;;;;;2.90;1.70;;;;;;;14.11;56.60;99905.44;5060059;28;20040;-66
2023/01/07 14:37:00;;;;;;;2.05;1.30;;;;;;;13.94;56.53;99901.47;5054491;28;20064;-66
2023/01/07 14:39:37;;;;;;;1.27;1.10;;;;;;;13.87;56.44;99900.63;5054334;28;20135;-67
2023/01/07 14:42:17;;;;;;;1.53;0.90;;;;;;;13.72;57.02;99904.31;5054337;28;20043;-68
2023/01/07 14:44:44;;;;;;;1.33;1.15;;;;;;;13.68;57.45;99903.06;5054449;28;20126;-68
2023/01/07 14:47:10;;;;;;;0.65;0.60;;;;;;;13.67;57.42;99897.91;5054074;28;20112;-66
2023/01/07 14:49:54;;;;;;;2.15;1.20;;;;;;;13.68;57.43;99903.06;5062153;28;20040;-65
2023/01/07 14:52:37;;;;;;;1.63;1.25;;;;;;;13.63;57.31;99894.84;5063496;28;20054;-66
2023/01/07 14:55:33;;;;;;;1.02;0.93;;;;;;;13.56;58.16;99900.16;5053746;28;20033;-67
2023/01/07 14:58:13;;;;;;;1.13;0.75;;;;;;;13.49;58.23;99895.78;5048415;28;20053;-67
2023/01/07 15:00:54;;;;;;;2.10;1.20;;;;;;;13.47;58.18;99893.31;5054078;28;20037;-66
2023/01/07 15:03:41;;;;;;;1.75;1.27;;;;;;;13.37;58.70;99889.41;5054163;28;20460;-66
2023/01/07 15:06:09;;;;;;;2.10;1.08;;;;;;;13.31;59.02;99885.66;5053754;28;20448;-66
2023/01/07 15:17:18;;;;;;;2.08;1.20;;;;;;;13.14;60.49;99878.97;5053241;28;20052;-66
2023/01/07 15:19:44;;;;;;;2.47;1.70;;;;;;;13.08;60.31;99872.56;5054011;28;20394;-68
2023/01/07 15:22:15;;;;;;;1.15;1.05;;;;;;;13.08;60.49;99874.41;5053386;28;20048;-66
2023/01/07 15:25:13;;;;;;;2.47;1.67;;;;;;;12.93;60.77;99880.72;5053712;28;20032;-65
2023/01/07 15:27:41;;;;;;;;;;;;;;;12.92;61.37;99883.59;5053656;28;20040;-65
2023/01/07 15:30:33;;;;;;;2.78;1.27;;;;;;;12.79;61.93;99878.16;5053562;28;20066;-65
2023/01/07 15:33:17;;;;;;;1.85;1.55;;;;;;;12.66;62.27;99877.06;5053363;28;20037;-65
2023/01/07 15:35:43;;;;;;;2.10;1.45;;;;;;;12.56;63.05;99881.91;5053424;28;20037;-64
2023/01/07 15:38:43;;;;;;;1.92;1.42;;;;;;;12.49;63.49;99873.03;5052876;28;20124;-65
2023/01/07 15:41:41;;;;;;;2.28;1.55;;;;;;;12.40;64.13;99885.72;5053295;28;20052;-66
2023/01/07 15:44:24;;;;;;;3.85;1.90;;;;;;;12.37;64.77;99879.91;5019580;28;20053;-66
2023/01/07 15:46:49;;;;;;;1.88;1.48;;;;;;;12.30;64.54;99882.53;5053026;28;20039;-65
2023/01/07 15:49:19;;;;;;;2.22;1.80;;;;;;;12.25;64.68;99876.94;5052735;28;20025;-64
2023/01/07 15:51:47;;;;;;;4.13;2.20;;;;;;;12.25;64.94;99871.59;5053146;28;20087;-65
2023/01/07 15:54:28;;;;;;;3.00;2.15;;;;;;;12.18;65.12;99871.53;5053115;28;20037;-66
2023/01/07 15:56:57;;;;;;;8.57;4.32;;;;;;;12.06;66.49;99859.75;5052691;28;20117;-65
2023/01/07 15:59:30;;;;;;;4.78;3.30;;;;;;;12.02;66.86;99861.16;5052660;28;20052;-65
2023/01/07 16:02:01;;;;;;;6.28;2.78;;;;;;;11.86;66.89;99859.53;5052950;28;20404;-65
2023/01/07 16:04:30;;;;;;;5.50;3.25;;;;;;;11.77;67.59;99866.00;5052857;28;20036;-66
2023/01/07 16:06:57;;;;;;;5.70;3.90;;;;;;;11.69;68.31;99866.13;5050601;28;20564;-65
2023/01/07 16:09:23;;;;;;;8.05;5.90;;;;;;;11.60;69.69;99868.06;5052582;28;20037;-65
2023/01/07 16:11:49;;;;;;;5.00;3.17;;;;;;;11.52;69.54;99859.38;5052668;28;20029;-66
2023/01/07 16:14:25;;;;;;;3.85;2.85;;;;;;;11.28;70.76;99861.38;5052782;28;20043;-67
2023/01/07 16:17:14;;;;;;;2.85;2.13;;;;;;;11.22;71.41;99851.47;5052841;28;20124;-67
2023/01/07 16:19:39;;;;;;;3.55;2.67;;;;;;;11.05;72.46;99855.34;5052530;28;20032;-66
2023/01/07 16:22:07;;;;;;;3.22;2.30;;;;;;;10.93;73.16;99849.66;5052463;28;20459;-65
2023/01/07 16:24:32;;;;;;;2.97;2.60;;;;;;;10.73;74.17;99845.88;5052412;28;20048;-65
2023/01/07 16:27:02;;;;;;;2.45;1.73;;;;;;;10.74;74.13;99842.22;5052200;28;20041;-65
2023/01/07 16:29:34;;;;;;;2.60;1.58;;;;;;;10.62;75.04;99843.66;5052140;28;20044;-64
2023/01/07 16:32:00;;;;;;;4.82;3.30;;;;;;;10.50;75.77;99844.16;5052297;28;20048;-65
2023/01/07 16:34:26;;;;;;;2.33;2.00;;;;;;;10.35;76.57;99840.63;5052181;28;20414;-65
2023/01/07 16:36:54;;;;;;;2.40;1.50;;;;;;;10.38;76.10;99837.63;5052036;28;20040;-65
2023/01/07 16:39:24;;;;;;;2.75;1.75;;;;;;;10.23;76.31;99844.72;5051878;28;20079;-65
2023/01/07 16:41:50;;;;;;;2.53;1.77;;;;;;;10.13;77.38;99834.31;5052022;28;20037;-65
2023/01/07 16:44:55;;;;;;;3.47;1.85;;;;;;;10.05;77.44;99832.56;5052002;28;20036;-66
2023/01/07 16:47:29;;;;;;;3.03;2.10;;;;;;;9.74;79.88;99834.47;5051594;28;20478;-65
2023/01/07 16:50:13;;;;;;;3.58;1.70;;;;;;;9.62;80.63;99825.25;5051830;28;20497;-65
2023/01/07 16:52:48;;;;;;;3.95;1.58;;;;;;;9.56;81.08;99820.63;5051832;28;20033;-65
2023/01/07 16:55:45;;;;;;;5.80;2.90;;;;;;;9.50;81.13;99824.81;5051642;28;20458;-64
2023/01/07 16:58:16;;;;;;;5.28;2.75;;;;;;;9.42;81.34;99825.72;5051509;28;20433;-65
2023/01/07 17:00:48;;;;;;;4.25;2.63;;;;;;;9.32;82.43;99814.47;5051737;28;20060;-64
2023/01/07 17:03:13;;;;;;;2.47;1.98;;;;;;;9.19;82.36;99815.06;5051839;28;20110;-65
2023/01/07 17:05:39;;;;;;;4.32;2.55;;;;;;;9.01;83.60;99811.00;5051723;28;20498;-65
2023/01/07 17:08:15;;;;;;;5.65;3.83;;;;;;;8.96;84.43;99814.19;5051324;28;20037;-66
2023/01/07 17:10:45;;;;;;;3.40;2.67;;;;;;;8.92;84.42;99816.34;5051785;28;20041;-65
2023/01/07 17:13:14;;;;;;;5.00;2.10;;;;;;;8.81;84.88;99822.03;5051598;28;20391;-65
2023/01/07 17:15:41;;;;;;;2.25;1.70;;;;;;;8.70;86.58;99815.28;5051611;28;20043;-66
2023/01/07 17:18:13;;;;;;;6.13;3.20;;;;;;;8.67;86.29;99810.31;5051166;28;20037;-64
2023/01/07 17:20:55;;;;;;;1.83;1.55;;;;;;;8.61;86.40;99816.31;5051397;28;20041;-64
2023/01/07 17:23:23;;;;;;;3.25;2.05;;;;;;;8.44;87.13;99814.69;5051610;28;20048;-64
2023/01/07 17:26:07;;;;;;;3.53;1.83;;;;;;;8.40;88.08;99802.75;5051673;28;20041;-67
2023/01/07 17:28:36;;;;;;;2.97;2.00;;;;;;;8.35;88.14;99791.81;5051344;28;20040;-67
2023/01/07 17:31:02;;;;;;;3.67;1.67;;;;;;;8.34;88.39;99796.25;5051644;28;20044;-66
2023/01/07 17:33:28;;;;;;;3.42;2.30;;;;;;;8.14;89.07;99787.00;5087138;22;20123;-66